DRRA weather

Tessaoua Airport
Tessaoua, Maradi Region, Niger

Public forecast

Using degrees Celsius for public forecast. Weather courtesy of forecast.io.

METAR (pilot weather report)

Closest report is Maradi Airport, 54.3 nm (100.6 km) WSW. Retrieved 2019/04/23 09:00 UTC (35 minutes ago):

DRRM 230900Z 26006KT 8000 NSC 35/17 Q1010

TAF (pilot weather forecast)

Closest forecast is Zinder Airport, 56.2 nm (104.1 km) E. Retrieved 2019/04/23 06:21 UTC (3 hours ago):

TAF DRZR 230500Z 2306/2406 25008KT 6000 NSC TEMPO 2306/2312 12020KT 1500 BLDU